sensor_id;sensor_type;location;lat;lon;timestamp;pressure;altitude;pressure_sealevel;temperature;humidity
29549;BME280;16487;53.094;8.800;2023-02-26T00:00:25;100884.97;;;-0.58;100.00
29549;BME280;16487;53.094;8.800;2023-02-26T00:02:53;100892.03;;;-0.57;100.00
29549;BME280;16487;53.094;8.800;2023-02-26T00:05:21;100892.03;;;-0.57;100.00
29549;BME280;16487;53.094;8.800;2023-02-26T00:07:54;100892.50;;;-0.51;100.00
29549;BME280;16487;53.094;8.800;2023-02-26T00:10:21;100881.56;;;-0.51;100.00
29549;BME280;16487;53.094;8.800;2023-02-26T00:12:49;100878.16;;;-0.45;100.00
29549;BME280;16487;53.094;8.800;2023-02-26T00:15:17;100860.16;;;-0.46;100.00
29549;BME280;16487;53.094;8.800;2023-02-26T00:17:51;100858.22;;;-0.45;100.00
29549;BME280;16487;53.094;8.800;2023-02-26T00:20:24;100846.41;;;-0.49;100.00
29549;BME280;16487;53.094;8.800;2023-02-26T00:22:52;100846.78;;;-0.51;100.00
29549;BME280;16487;53.094;8.800;2023-02-26T00:25:19;100836.66;;;-0.47;100.00
29549;BME280;16487;53.094;8.800;2023-02-26T00:27:47;100846.78;;;-0.51;100.00
29549;BME280;16487;53.094;8.800;2023-02-26T00:30:15;100848.66;;;-0.55;100.00
29549;BME280;16487;53.094;8.800;2023-02-26T00:32:43;100834.19;;;-0.55;100.00
29549;BME280;16487;53.094;8.800;2023-02-26T00:35:14;100839.59;;;-0.59;100.00
29549;BME280;16487;53.094;8.800;2023-02-26T00:37:54;100837.91;;;-0.67;100.00
29549;BME280;16487;53.094;8.800;2023-02-26T00:40:29;100836.28;;;-0.71;100.00
29549;BME280;16487;53.094;8.800;2023-02-26T00:43:01;100832.75;;;-0.72;100.00
29549;BME280;16487;53.094;8.800;2023-02-26T00:45:29;100836.22;;;-0.75;100.00
29549;BME280;16487;53.094;8.800;2023-02-26T00:48:12;100834.50;;;-0.83;100.00
29549;BME280;16487;53.094;8.800;2023-02-26T00:50:47;100850.84;;;-0.86;100.00
29549;BME280;16487;53.094;8.800;2023-02-26T00:53:23;100860.34;;;-0.80;100.00
29549;BME280;16487;53.094;8.800;2023-02-26T00:55:53;100854.81;;;-0.84;100.00
29549;BME280;16487;53.094;8.800;2023-02-26T00:58:20;100867.63;;;-0.88;100.00
29549;BME280;16487;53.094;8.800;2023-02-26T01:00:47;100866.84;;;-0.88;100.00
29549;BME280;16487;53.094;8.800;2023-02-26T01:03:15;100863.19;;;-0.96;100.00
29549;BME280;16487;53.094;8.800;2023-02-26T01:05:45;100875.25;;;-0.97;100.00
29549;BME280;16487;53.094;8.800;2023-02-26T01:08:14;100870.09;;;-1.02;100.00
29549;BME280;16487;53.094;8.800;2023-02-26T01:10:45;100884.31;;;-0.93;100.00
29549;BME280;16487;53.094;8.800;2023-02-26T01:13:12;100889.06;;;-0.90;100.00
29549;BME280;16487;53.094;8.800;2023-02-26T01:15:45;100881.59;;;-0.93;100.00
29549;BME280;16487;53.094;8.800;2023-02-26T01:18:17;100878.34;;;-0.98;100.00
29549;BME280;16487;53.094;8.800;2023-02-26T01:20:53;100888.94;;;-0.97;100.00
29549;BME280;16487;53.094;8.800;2023-02-26T01:23:25;100905.34;;;-0.97;100.00
29549;BME280;16487;53.094;8.800;2023-02-26T01:25:55;100912.41;;;-0.96;100.00
29549;BME280;16487;53.094;8.800;2023-02-26T01:28:24;100919.75;;;-1.00;100.00
29549;BME280;16487;53.094;8.800;2023-02-26T01:30:55;100924.78;;;-1.02;100.00
29549;BME280;16487;53.094;8.800;2023-02-26T01:33:27;100932.56;;;-1.04;100.00
29549;BME280;16487;53.094;8.800;2023-02-26T01:36:00;100937.31;;;-1.01;100.00
29549;BME280;16487;53.094;8.800;2023-02-26T01:38:35;100947.38;;;-1.05;100.00
29549;BME280;16487;53.094;8.800;2023-02-26T01:41:13;100957.44;;;-1.09;100.00
29549;BME280;16487;53.094;8.800;2023-02-26T01:43:50;100955.00;;;-1.14;100.00
29549;BME280;16487;53.094;8.800;2023-02-26T01:46:23;100956.53;;;-1.17;100.00
29549;BME280;16487;53.094;8.800;2023-02-26T01:48:54;100969.13;;;-1.12;100.00
29549;BME280;16487;53.094;8.800;2023-02-26T01:51:50;100966.44;;;-1.08;100.00
29549;BME280;16487;53.094;8.800;2023-02-26T01:54:20;100976.19;;;-1.11;100.00
29549;BME280;16487;53.094;8.800;2023-02-26T01:56:49;100981.97;;;-1.13;100.00
29549;BME280;16487;53.094;8.800;2023-02-26T01:59:18;100989.84;;;-1.11;100.00
29549;BME280;16487;53.094;8.800;2023-02-26T02:01:46;100985.53;;;-1.12;100.00
29549;BME280;16487;53.094;8.800;2023-02-26T02:04:16;100983.06;;;-1.17;100.00
29549;BME280;16487;53.094;8.800;2023-02-26T02:06:46;100997.97;;;-1.14;100.00
29549;BME280;16487;53.094;8.800;2023-02-26T02:09:13;100998.06;;;-1.11;100.00
29549;BME280;16487;53.094;8.800;2023-02-26T02:11:51;101008.13;;;-1.15;100.00
29549;BME280;16487;53.094;8.800;2023-02-26T02:14:26;101019.78;;;-1.18;100.00
29549;BME280;16487;53.094;8.800;2023-02-26T02:17:02;101020.06;;;-1.23;100.00
29549;BME280;16487;53.094;8.800;2023-02-26T02:19:54;101038.47;;;-1.20;100.00
29549;BME280;16487;53.094;8.800;2023-02-26T02:22:39;101049.41;;;-1.20;100.00
29549;BME280;16487;53.094;8.800;2023-02-26T02:25:25;101069.28;;;-1.23;100.00
29549;BME280;16487;53.094;8.800;2023-02-26T02:28:03;101064.50;;;-1.26;100.00
29549;BME280;16487;53.094;8.800;2023-02-26T02:30:37;101071.13;;;-1.27;100.00
29549;BME280;16487;53.094;8.800;2023-02-26T02:33:13;101089.00;;;-1.30;100.00
29549;BME280;16487;53.094;8.800;2023-02-26T02:35:47;101083.47;;;-1.33;100.00
29549;BME280;16487;53.094;8.800;2023-02-26T02:38:20;101105.25;;;-1.37;100.00
29549;BME280;16487;53.094;8.800;2023-02-26T02:40:54;101116.63;;;-1.35;100.00
29549;BME280;16487;53.094;8.800;2023-02-26T02:43:27;101124.03;;;-1.35;100.00
29549;BME280;16487;53.094;8.800;2023-02-26T02:46:00;101139.56;;;-1.39;100.00
29549;BME280;16487;53.094;8.800;2023-02-26T02:48:34;101144.31;;;-1.36;100.00
29549;BME280;16487;53.094;8.800;2023-02-26T02:51:09;101160.88;;;-1.29;100.00
29549;BME280;16487;53.094;8.800;2023-02-26T02:53:42;101162.31;;;-1.35;100.00
29549;BME280;16487;53.094;8.800;2023-02-26T02:56:12;101174.13;;;-1.31;100.00
29549;BME280;16487;53.094;8.800;2023-02-26T02:58:47;101179.84;;;-1.36;100.00
29549;BME280;16487;53.094;8.800;2023-02-26T03:01:18;101182.94;;;-1.38;100.00
29549;BME280;16487;53.094;8.800;2023-02-26T03:03:51;101192.28;;;-1.39;100.00
29549;BME280;16487;53.094;8.800;2023-02-26T03:06:22;101195.03;;;-1.39;100.00
29549;BME280;16487;53.094;8.800;2023-02-26T03:08:49;101206.28;;;-1.40;100.00
29549;BME280;16487;53.094;8.800;2023-02-26T03:11:18;101213.72;;;-1.41;100.00
29549;BME280;16487;53.094;8.800;2023-02-26T03:13:48;101214.94;;;-1.38;100.00
29549;BME280;16487;53.094;8.800;2023-02-26T03:16:45;101218.47;;;-1.38;100.00
29549;BME280;16487;53.094;8.800;2023-02-26T03:19:22;101214.06;;;-1.42;100.00
29549;BME280;16487;53.094;8.800;2023-02-26T03:22:01;101230.88;;;-1.40;100.00
29549;BME280;16487;53.094;8.800;2023-02-26T03:24:55;101233.19;;;-1.42;100.00
29549;BME280;16487;53.094;8.800;2023-02-26T03:27:29;101243.41;;;-1.39;100.00
29549;BME280;16487;53.094;8.800;2023-02-26T03:30:00;101243.16;;;-1.34;100.00
29549;BME280;16487;53.094;8.800;2023-02-26T03:32:41;101243.16;;;-1.34;100.00
29549;BME280;16487;53.094;8.800;2023-02-26T03:35:15;101244.53;;;-1.40;100.00
29549;BME280;16487;53.094;8.800;2023-02-26T03:37:45;101253.66;;;-1.36;100.00
29549;BME280;16487;53.094;8.800;2023-02-26T03:40:18;101258.22;;;-1.40;100.00
29549;BME280;16487;53.094;8.800;2023-02-26T03:42:51;101270.03;;;-1.36;100.00
29549;BME280;16487;53.094;8.800;2023-02-26T03:45:25;101275.50;;;-1.36;100.00
29549;BME280;16487;53.094;8.800;2023-02-26T03:47:56;101278.25;;;-1.36;100.00
29549;BME280;16487;53.094;8.800;2023-02-26T03:50:34;101281.59;;;-1.43;100.00
29549;BME280;16487;53.094;8.800;2023-02-26T03:53:23;101304.88;;;-1.33;100.00
29549;BME280;16487;53.094;8.800;2023-02-26T03:56:01;101299.66;;;-1.38;100.00
29549;BME280;16487;53.094;8.800;2023-02-26T03:58:59;101306.03;;;-1.34;100.00
29549;BME280;16487;53.094;8.800;2023-02-26T04:01:48;101299.59;;;-1.26;100.00
29549;BME280;16487;53.094;8.800;2023-02-26T04:04:21;101305.31;;;-1.31;100.00
29549;BME280;16487;53.094;8.800;2023-02-26T04:06:51;101316.16;;;-1.35;100.00
29549;BME280;16487;53.094;8.800;2023-02-26T04:09:20;101320.16;;;-1.32;100.00
29549;BME280;16487;53.094;8.800;2023-02-26T04:11:48;101320.91;;;-1.32;100.00
29549;BME280;16487;53.094;8.800;2023-02-26T04:14:16;101320.41;;;-1.37;100.00
29549;BME280;16487;53.094;8.800;2023-02-26T04:16:44;101332.00;;;-1.40;100.00
29549;BME280;16487;53.094;8.800;2023-02-26T04:19:11;101337.94;;;-1.38;100.00
29549;BME280;16487;53.094;8.800;2023-02-26T04:21:40;101342.38;;;-1.34;100.00
29549;BME280;16487;53.094;8.800;2023-02-26T04:24:09;101345.25;;;-1.42;100.00
29549;BME280;16487;53.094;8.800;2023-02-26T04:26:36;101348.00;;;-1.42;100.00
29549;BME280;16487;53.094;8.800;2023-02-26T04:29:03;101350.81;;;-1.39;100.00
29549;BME280;16487;53.094;8.800;2023-02-26T04:31:30;101350.38;;;-1.41;100.00
29549;BME280;16487;53.094;8.800;2023-02-26T04:33:59;101354.13;;;-1.45;100.00
29549;BME280;16487;53.094;8.800;2023-02-26T04:36:26;101349.81;;;-1.46;100.00
29549;BME280;16487;53.094;8.800;2023-02-26T04:38:54;101347.78;;;-1.49;100.00
29549;BME280;16487;53.094;8.800;2023-02-26T04:41:23;101361.66;;;-1.42;100.00
29549;BME280;16487;53.094;8.800;2023-02-26T04:43:51;101354.94;;;-1.45;100.00
29549;BME280;16487;53.094;8.800;2023-02-26T04:46:23;101354.13;;;-1.45;100.00
29549;BME280;16487;53.094;8.800;2023-02-26T04:48:51;101350.94;;;-1.47;100.00
29549;BME280;16487;53.094;8.800;2023-02-26T04:51:19;101356.41;;;-1.47;100.00
29549;BME280;16487;53.094;8.800;2023-02-26T04:53:49;101361.19;;;-1.44;100.00
29549;BME280;16487;53.094;8.800;2023-02-26T04:56:17;101362.78;;;-1.43;100.00
29549;BME280;16487;53.094;8.800;2023-02-26T04:58:47;101355.84;;;-1.41;100.00
29549;BME280;16487;53.094;8.800;2023-02-26T05:01:19;101355.50;;;-1.39;100.00
29549;BME280;16487;53.094;8.800;2023-02-26T05:03:47;101364.19;;;-1.49;100.00
29549;BME280;16487;53.094;8.800;2023-02-26T05:06:15;101370.19;;;-1.44;100.00
29549;BME280;16487;53.094;8.800;2023-02-26T05:08:42;101364.03;;;-1.41;100.00
29549;BME280;16487;53.094;8.800;2023-02-26T05:11:10;101369.50;;;-1.41;100.00
29549;BME280;16487;53.094;8.800;2023-02-26T05:13:38;101373.13;;;-1.37;100.00
29549;BME280;16487;53.094;8.800;2023-02-26T05:16:07;101364.66;;;-1.32;100.00
29549;BME280;16487;53.094;8.800;2023-02-26T05:18:35;101357.63;;;-1.33;100.00
29549;BME280;16487;53.094;8.800;2023-02-26T05:21:04;101361.59;;;-1.30;100.00
29549;BME280;16487;53.094;8.800;2023-02-26T05:23:32;101365.22;;;-1.26;100.00
29549;BME280;16487;53.094;8.800;2023-02-26T05:26:00;101348.81;;;-1.26;100.00
29549;BME280;16487;53.094;8.800;2023-02-26T05:28:27;101355.34;;;-1.31;100.00
29549;BME280;16487;53.094;8.800;2023-02-26T05:30:55;101347.75;;;-1.37;100.00
29549;BME280;16487;53.094;8.800;2023-02-26T05:33:26;101362.53;;;-1.38;100.00
29549;BME280;16487;53.094;8.800;2023-02-26T05:35:53;101359.78;;;-1.38;100.00
29549;BME280;16487;53.094;8.800;2023-02-26T05:38:20;101362.06;;;-1.40;100.00
29549;BME280;16487;53.094;8.800;2023-02-26T05:40:48;101353.88;;;-1.40;100.00
29549;BME280;16487;53.094;8.800;2023-02-26T05:43:15;101355.13;;;-1.38;100.00
29549;BME280;16487;53.094;8.800;2023-02-26T05:45:43;101360.03;;;-1.43;100.00
29549;BME280;16487;53.094;8.800;2023-02-26T05:48:10;101351.16;;;-1.40;100.00
29549;BME280;16487;53.094;8.800;2023-02-26T05:50:39;101356.50;;;-1.44;100.00
29549;BME280;16487;53.094;8.800;2023-02-26T05:53:06;101362.78;;;-1.43;100.00
29549;BME280;16487;53.094;8.800;2023-02-26T05:55:33;101367.59;;;-1.52;100.00
29549;BME280;16487;53.094;8.800;2023-02-26T05:58:01;101377.41;;;-1.51;100.00
29549;BME280;16487;53.094;8.800;2023-02-26T06:00:28;101378.75;;;-1.57;100.00
29549;BME280;16487;53.094;8.800;2023-02-26T06:02:55;101392.19;;;-1.52;100.00
29549;BME280;16487;53.094;8.800;2023-02-26T06:05:23;101402.00;;;-1.51;100.00
29549;BME280;16487;53.094;8.800;2023-02-26T06:07:51;101412.09;;;-1.40;100.00
29549;BME280;16487;53.094;8.800;2023-02-26T06:10:19;101413.69;;;-1.39;100.00
29549;BME280;16487;53.094;8.800;2023-02-26T06:12:47;101411.25;;;-1.28;100.00
29549;BME280;16487;53.094;8.800;2023-02-26T06:15:14;101394.00;;;-1.44;100.00
29549;BME280;16487;53.094;8.800;2023-02-26T06:17:41;101396.63;;;-1.48;100.00
29549;BME280;16487;53.094;8.800;2023-02-26T06:20:10;101394.78;;;-1.44;100.00
29549;BME280;16487;53.094;8.800;2023-02-26T06:22:37;101394.59;;;-1.51;100.00
29549;BME280;16487;53.094;8.800;2023-02-26T06:25:07;101405.28;;;-1.46;100.00
29549;BME280;16487;53.094;8.800;2023-02-26T06:27:35;101395.72;;;-1.52;100.00
29549;BME280;16487;53.094;8.800;2023-02-26T06:30:03;101387.53;;;-1.52;100.00
29549;BME280;16487;53.094;8.800;2023-02-26T06:32:31;101389.81;;;-1.54;100.00
29549;BME280;16487;53.094;8.800;2023-02-26T06:34:58;101385.13;;;-1.53;100.00
29549;BME280;16487;53.094;8.800;2023-02-26T06:37:26;101387.41;;;-1.55;100.00
29549;BME280;16487;53.094;8.800;2023-02-26T06:39:53;101384.34;;;-1.54;100.00
29549;BME280;16487;53.094;8.800;2023-02-26T06:42:22;101393.78;;;-1.51;100.00
29549;BME280;16487;53.094;8.800;2023-02-26T06:44:49;101386.72;;;-1.52;100.00
29549;BME280;16487;53.094;8.800;2023-02-26T06:47:16;101387.63;;;-1.48;100.00
29549;BME280;16487;53.094;8.800;2023-02-26T06:49:43;101384.19;;;-1.45;100.00
29549;BME280;16487;53.094;8.800;2023-02-26T06:52:11;101379.88;;;-1.46;100.00
29549;BME280;16487;53.094;8.800;2023-02-26T06:54:38;101385.44;;;-1.43;100.00
29549;BME280;16487;53.094;8.800;2023-02-26T06:57:06;101390.31;;;-1.36;100.00
29549;BME280;16487;53.094;8.800;2023-02-26T06:59:34;101391.56;;;-1.34;100.00
29549;BME280;16487;53.094;8.800;2023-02-26T07:02:02;101377.22;;;-1.31;100.00
29549;BME280;16487;53.094;8.800;2023-02-26T07:04:29;101365.91;;;-1.29;100.00
29549;BME280;16487;53.094;8.800;2023-02-26T07:06:56;101366.81;;;-1.25;100.00
29549;BME280;16487;53.094;8.800;2023-02-26T07:09:24;101366.47;;;-1.24;100.00
29549;BME280;16487;53.094;8.800;2023-02-26T07:11:51;101368.25;;;-1.16;100.00
29549;BME280;16487;53.094;8.800;2023-02-26T07:14:18;101358.22;;;-1.11;100.00
29549;BME280;16487;53.094;8.800;2023-02-26T07:16:47;101362.16;;;-1.09;100.00
29549;BME280;16487;53.094;8.800;2023-02-26T07:19:14;101363.06;;;-1.05;100.00
29549;BME280;16487;53.094;8.800;2023-02-26T07:21:43;101356.63;;;-0.97;100.00
29549;BME280;16487;53.094;8.800;2023-02-26T07:24:11;101357.38;;;-0.84;100.00
29549;BME280;16487;53.094;8.800;2023-02-26T07:26:38;101344.22;;;-0.79;100.00
29549;BME280;16487;53.094;8.800;2023-02-26T07:29:05;101338.75;;;-0.79;100.00
29549;BME280;16487;53.094;8.800;2023-02-26T07:31:33;101335.03;;;-0.71;100.00
29549;BME280;16487;53.094;8.800;2023-02-26T07:34:02;101327.72;;;-0.67;100.00
29549;BME280;16487;53.094;8.800;2023-02-26T07:36:29;101323.50;;;-0.64;100.00
29549;BME280;16487;53.094;8.800;2023-02-26T07:38:56;101328.34;;;-0.58;100.00
29549;BME280;16487;53.094;8.800;2023-02-26T07:41:24;101308.19;;;-0.50;100.00
29549;BME280;16487;53.094;8.800;2023-02-26T07:43:51;101296.69;;;-0.40;100.00
29549;BME280;16487;53.094;8.800;2023-02-26T07:46:19;101300.03;;;-0.31;100.00
29549;BME280;16487;53.094;8.800;2023-02-26T07:48:46;101279.09;;;-0.23;100.00
29549;BME280;16487;53.094;8.800;2023-02-26T07:51:15;101274.44;;;-0.23;100.00
29549;BME280;16487;53.094;8.800;2023-02-26T07:53:42;101264.50;;;-0.12;100.00
29549;BME280;16487;53.094;8.800;2023-02-26T07:56:09;101257.59;;;-0.06;100.00
29549;BME280;16487;53.094;8.800;2023-02-26T07:58:37;101255.38;;;0.00;100.00
29549;BME280;16487;53.094;8.800;2023-02-26T08:01:04;101251.09;;;0.03;100.00
29549;BME280;16487;53.094;8.800;2023-02-26T08:03:32;101244.97;;;0.09;100.00
29549;BME280;16487;53.094;8.800;2023-02-26T08:06:06;101251.09;;;0.22;100.00
29549;BME280;16487;53.094;8.800;2023-02-26T08:08:35;101236.38;;;0.30;100.00
29549;BME280;16487;53.094;8.800;2023-02-26T08:11:05;101224.84;;;0.40;100.00
29549;BME280;16487;53.094;8.800;2023-02-26T08:13:34;101220.22;;;0.44;100.00
29549;BME280;16487;53.094;8.800;2023-02-26T08:16:01;101207.88;;;0.53;100.00
29549;BME280;16487;53.094;8.800;2023-02-26T08:18:29;101204.44;;;0.60;100.00
29549;BME280;16487;53.094;8.800;2023-02-26T08:20:56;101207.81;;;0.72;100.00
29549;BME280;16487;53.094;8.800;2023-02-26T08:23:23;101205.97;;;0.80;100.00
29549;BME280;16487;53.094;8.800;2023-02-26T08:25:58;101200.19;;;0.85;100.00
29549;BME280;16487;53.094;8.800;2023-02-26T08:28:26;101207.00;;;0.94;100.00
29549;BME280;16487;53.094;8.800;2023-02-26T08:30:53;101199.28;;;1.00;100.00
29549;BME280;16487;53.094;8.800;2023-02-26T08:33:21;101211.88;;;1.04;100.00
29549;BME280;16487;53.094;8.800;2023-02-26T08:35:51;101207.00;;;1.17;100.00
29549;BME280;16487;53.094;8.800;2023-02-26T08:38:19;101205.09;;;1.21;100.00
29549;BME280;16487;53.094;8.800;2023-02-26T08:40:48;101203.63;;;1.27;100.00
29549;BME280;16487;53.094;8.800;2023-02-26T08:43:17;101203.31;;;1.32;100.00
29549;BME280;16487;53.094;8.800;2023-02-26T08:45:45;101203.03;;;1.41;100.00
29549;BME280;16487;53.094;8.800;2023-02-26T08:48:12;101203.19;;;1.51;100.00
29549;BME280;16487;53.094;8.800;2023-02-26T08:50:39;101205.72;;;1.63;100.00
29549;BME280;16487;53.094;8.800;2023-02-26T08:53:07;101207.31;;;1.64;100.00
29549;BME280;16487;53.094;8.800;2023-02-26T08:55:34;101218.69;;;1.66;100.00
29549;BME280;16487;53.094;8.800;2023-02-26T08:58:01;101218.41;;;1.71;100.00
29549;BME280;16487;53.094;8.800;2023-02-26T09:00:30;101222.78;;;1.76;100.00
29549;BME280;16487;53.094;8.800;2023-02-26T09:02:58;101227.88;;;1.77;100.00
29549;BME280;16487;53.094;8.800;2023-02-26T09:05:26;101225.94;;;1.78;100.00
29549;BME280;16487;53.094;8.800;2023-02-26T09:07:53;101226.41;;;1.83;100.00
29549;BME280;16487;53.094;8.800;2023-02-26T09:10:20;101231.00;;;2.05;100.00
29549;BME280;16487;53.094;8.800;2023-02-26T09:12:48;101226.03;;;2.14;100.00
29549;BME280;16487;53.094;8.800;2023-02-26T09:15:15;101224.47;;;2.17;100.00
29549;BME280;16487;53.094;8.800;2023-02-26T09:17:44;101249.59;;;2.15;100.00
29549;BME280;16487;53.094;8.800;2023-02-26T09:20:11;101242.69;;;2.28;100.00
29549;BME280;16487;53.094;8.800;2023-02-26T09:22:39;101251.63;;;2.22;100.00
29549;BME280;16487;53.094;8.800;2023-02-26T09:25:08;101247.53;;;2.39;100.00
29549;BME280;16487;53.094;8.800;2023-02-26T09:27:35;101250.38;;;2.46;100.00
29549;BME280;16487;53.094;8.800;2023-02-26T09:30:04;101253.13;;;2.46;100.00
29549;BME280;16487;53.094;8.800;2023-02-26T09:32:31;101264.97;;;2.53;100.00
29549;BME280;16487;53.094;8.800;2023-02-26T09:35:00;101257.94;;;2.56;100.00
29549;BME280;16487;53.094;8.800;2023-02-26T09:37:27;101271.44;;;2.68;100.00
29549;BME280;16487;53.094;8.800;2023-02-26T09:39:55;101271.97;;;2.80;100.00
29549;BME280;16487;53.094;8.800;2023-02-26T09:42:30;101285.31;;;2.78;100.00
29549;BME280;16487;53.094;8.800;2023-02-26T09:44:59;101286.56;;;2.88;100.00
29549;BME280;16487;53.094;8.800;2023-02-26T09:47:29;101302.31;;;2.87;100.00
29549;BME280;16487;53.094;8.800;2023-02-26T09:50:03;101296.94;;;2.98;100.00
29549;BME280;16487;53.094;8.800;2023-02-26T09:52:36;101326.88;;;3.03;100.00
29549;BME280;16487;53.094;8.800;2023-02-26T09:55:10;101349.84;;;2.84;100.00
29549;BME280;16487;53.094;8.800;2023-02-26T09:57:41;101360.66;;;3.03;100.00
29549;BME280;16487;53.094;8.800;2023-02-26T10:00:20;101365.78;;;3.05;100.00
29549;BME280;16487;53.094;8.800;2023-02-26T10:02:54;101371.88;;;3.21;100.00
29549;BME280;16487;53.094;8.800;2023-02-26T10:05:32;101367.06;;;3.11;100.00
29549;BME280;16487;53.094;8.800;2023-02-26T10:08:09;101367.16;;;3.21;100.00
29549;BME280;16487;53.094;8.800;2023-02-26T10:10:47;101362.53;;;3.32;100.00
29549;BME280;16487;53.094;8.800;2023-02-26T10:13:21;101360.25;;;3.85;100.00
29549;BME280;16487;53.094;8.800;2023-02-26T10:15:51;101408.41;;;3.98;100.00
29549;BME280;16487;53.094;8.800;2023-02-26T10:18:23;101464.47;;;4.13;100.00
29549;BME280;16487;53.094;8.800;2023-02-26T10:20:56;101544.00;;;4.07;100.00
29549;BME280;16487;53.094;8.800;2023-02-26T10:23:27;101570.06;;;4.10;100.00
29549;BME280;16487;53.094;8.800;2023-02-26T10:26:03;101616.06;;;4.02;100.00
29549;BME280;16487;53.094;8.800;2023-02-26T10:28:41;101626.75;;;4.07;100.00
29549;BME280;16487;53.094;8.800;2023-02-26T10:31:17;101694.84;;;4.73;100.00
29549;BME280;16487;53.094;8.800;2023-02-26T10:33:52;101862.75;;;6.28;100.00
29549;BME280;16487;53.094;8.800;2023-02-26T10:36:25;102023.16;;;6.58;100.00
29549;BME280;16487;53.094;8.800;2023-02-26T10:39:01;102078.94;;;6.56;100.00
29549;BME280;16487;53.094;8.800;2023-02-26T10:41:30;102116.38;;;6.03;100.00
29549;BME280;16487;53.094;8.800;2023-02-26T10:44:03;102154.81;;;6.48;100.00
29549;BME280;16487;53.094;8.800;2023-02-26T10:46:38;102204.00;;;6.58;100.00
29549;BME280;16487;53.094;8.800;2023-02-26T10:49:31;102219.88;;;6.61;100.00
29549;BME280;16487;53.094;8.800;2023-02-26T10:52:11;102211.69;;;5.76;100.00
29549;BME280;16487;53.094;8.800;2023-02-26T10:54:45;102186.66;;;5.95;100.00
29549;BME280;16487;53.094;8.800;2023-02-26T10:57:19;102198.28;;;5.78;100.00
29549;BME280;16487;53.094;8.800;2023-02-26T10:59:47;102185.84;;;6.64;100.00
29549;BME280;16487;53.094;8.800;2023-02-26T11:02:34;102292.47;;;7.18;100.00
29549;BME280;16487;53.094;8.800;2023-02-26T11:05:04;102347.28;;;7.35;100.00
29549;BME280;16487;53.094;8.800;2023-02-26T11:07:36;102370.78;;;7.08;100.00
29549;BME280;16487;53.094;8.800;2023-02-26T11:10:13;102369.06;;;7.76;100.00
29549;BME280;16487;53.094;8.800;2023-02-26T11:12:41;102393.19;;;6.62;100.00
29549;BME280;16487;53.094;8.800;2023-02-26T11:15:12;102368.66;;;6.61;100.00
29549;BME280;16487;53.094;8.800;2023-02-26T11:17:40;102352.69;;;5.72;100.00
29549;BME280;16487;53.094;8.800;2023-02-26T11:20:15;102309.81;;;5.37;100.00
29549;BME280;16487;53.094;8.800;2023-02-26T11:22:46;102291.94;;;5.79;100.00
29549;BME280;16487;53.094;8.800;2023-02-26T11:25:17;102312.81;;;6.92;100.00
29549;BME280;16487;53.094;8.800;2023-02-26T11:27:48;102337.97;;;7.13;100.00
29549;BME280;16487;53.094;8.800;2023-02-26T11:30:16;102360.41;;;7.41;100.00
29549;BME280;16487;53.094;8.800;2023-02-26T11:32:45;102394.88;;;8.28;100.00
29549;BME280;16487;53.094;8.800;2023-02-26T11:35:18;102430.06;;;8.74;100.00
29549;BME280;16487;53.094;8.800;2023-02-26T11:37:51;102542.56;;;9.91;100.00
29549;BME280;16487;53.094;8.800;2023-02-26T11:40:22;102587.91;;;8.51;100.00
29549;BME280;16487;53.094;8.800;2023-02-26T11:42:54;102594.22;;;6.86;100.00
29549;BME280;16487;53.094;8.800;2023-02-26T11:45:22;102595.13;;;6.22;100.00
29549;BME280;16487;53.094;8.800;2023-02-26T11:47:57;102560.78;;;5.43;100.00
29549;BME280;16487;53.094;8.800;2023-02-26T11:50:26;102523.00;;;5.32;100.00
29549;BME280;16487;53.094;8.800;2023-02-26T11:52:56;102482.69;;;6.14;100.00
29549;BME280;16487;53.094;8.800;2023-02-26T11:55:29;102558.25;;;7.82;100.00
29549;BME280;16487;53.094;8.800;2023-02-26T11:57:58;102585.97;;;9.13;100.00
29549;BME280;16487;53.094;8.800;2023-02-26T12:00:29;102602.97;;;8.97;100.00
29549;BME280;16487;53.094;8.800;2023-02-26T12:02:59;102608.84;;;8.85;100.00
29549;BME280;16487;53.094;8.800;2023-02-26T12:05:27;102609.91;;;9.24;100.00
29549;BME280;16487;53.094;8.800;2023-02-26T12:07:56;102606.31;;;10.17;100.00
29549;BME280;16487;53.094;8.800;2023-02-26T12:10:30;102619.69;;;9.69;100.00
29549;BME280;16487;53.094;8.800;2023-02-26T12:13:08;102606.19;;;9.89;100.00
29549;BME280;16487;53.094;8.800;2023-02-26T12:15:45;102607.38;;;9.77;100.00
29549;BME280;16487;53.094;8.800;2023-02-26T12:18:41;102600.81;;;10.77;100.00
29549;BME280;16487;53.094;8.800;2023-02-26T12:21:21;102602.78;;;10.45;100.00
29549;BME280;16487;53.094;8.800;2023-02-26T12:24:14;102609.34;;;9.77;100.00
29549;BME280;16487;53.094;8.800;2023-02-26T12:26:52;102603.72;;;9.56;100.00
29549;BME280;16487;53.094;8.800;2023-02-26T12:29:32;102592.75;;;11.24;100.00
29549;BME280;16487;53.094;8.800;2023-02-26T12:32:24;102597.59;;;10.99;100.00
29549;BME280;16487;53.094;8.800;2023-02-26T12:38:03;102643.44;;;7.48;100.00
29549;BME280;16487;53.094;8.800;2023-02-26T12:40:46;102625.81;;;6.81;100.00
29549;BME280;16487;53.094;8.800;2023-02-26T12:43:24;102611.13;;;6.55;100.00
29549;BME280;16487;53.094;8.800;2023-02-26T12:46:01;102615.31;;;7.50;100.00
29549;BME280;16487;53.094;8.800;2023-02-26T12:48:50;102629.25;;;8.20;100.00
29549;BME280;16487;53.094;8.800;2023-02-26T12:51:28;102639.94;;;8.18;100.00
29549;BME280;16487;53.094;8.800;2023-02-26T12:54:04;102629.91;;;9.48;100.00
29549;BME280;16487;53.094;8.800;2023-02-26T12:57:02;102606.38;;;10.59;100.00
29549;BME280;16487;53.094;8.800;2023-02-26T12:59:42;102617.44;;;9.20;100.00
29549;BME280;16487;53.094;8.800;2023-02-26T13:02:28;102634.94;;;7.97;100.00
29549;BME280;16487;53.094;8.800;2023-02-26T13:05:09;102629.03;;;8.35;100.00
29549;BME280;16487;53.094;8.800;2023-02-26T13:07:58;102640.69;;;7.48;100.00